createdAt,value
2017-12-06T00:00:09.132Z,92.10
2017-12-06T00:02:35.551Z,92.10
2017-12-06T00:05:02.089Z,92.20
2017-12-06T00:07:30.281Z,92.30
2017-12-06T00:09:59.151Z,92.40
2017-12-06T00:12:32.158Z,92.30
2017-12-06T00:15:05.015Z,92.40
2017-12-06T00:17:31.476Z,92.30
2017-12-06T00:19:57.984Z,92.40
2017-12-06T00:22:24.439Z,92.60
2017-12-06T00:24:50.919Z,92.70
2017-12-06T00:27:17.370Z,92.70
2017-12-06T00:29:43.846Z,92.80
2017-12-06T00:32:10.462Z,92.80
2017-12-06T00:34:36.994Z,92.90
2017-12-06T00:37:03.539Z,92.90
2017-12-06T00:39:30.036Z,92.90
2017-12-06T00:41:56.426Z,92.90
2017-12-06T00:44:22.882Z,92.70
2017-12-06T00:46:49.390Z,92.60
2017-12-06T00:49:15.903Z,92.40
2017-12-06T00:51:43.201Z,92.40
2017-12-06T00:54:09.597Z,92.30
2017-12-06T00:56:36.945Z,92.30
2017-12-06T00:59:03.398Z,92.30
2017-12-06T01:01:32.011Z,92.40
2017-12-06T01:03:58.419Z,92.40
2017-12-06T01:06:25.681Z,92.00
2017-12-06T01:08:51.986Z,92.00
2017-12-06T01:11:18.619Z,92.00
2017-12-06T01:13:45.773Z,92.20
2017-12-06T01:16:12.183Z,92.20
2017-12-06T01:18:39.169Z,92.20
2017-12-06T01:21:05.580Z,92.00
2017-12-06T01:23:32.078Z,91.90
2017-12-06T01:25:58.556Z,91.80
2017-12-06T01:28:25.868Z,91.80
2017-12-06T01:30:52.336Z,91.80
2017-12-06T01:33:19.561Z,92.30
2017-12-06T01:35:46.160Z,91.90
2017-12-06T01:38:12.600Z,92.20
2017-12-06T01:40:39.106Z,92.60
2017-12-06T01:43:05.524Z,92.80
2017-12-06T01:45:32.575Z,93.00
2017-12-06T01:47:59.808Z,92.90
2017-12-06T01:50:26.385Z,92.90
2017-12-06T01:52:52.807Z,92.80
2017-12-06T01:55:19.364Z,92.60
2017-12-06T01:57:46.081Z,92.70
2017-12-06T02:00:12.735Z,92.70
2017-12-06T02:02:39.833Z,92.80
2017-12-06T02:05:07.056Z,92.90
2017-12-06T02:07:34.220Z,93.00
2017-12-06T02:10:00.773Z,93.00
2017-12-06T02:12:27.180Z,93.00
2017-12-06T02:14:54.248Z,92.70
2017-12-06T02:17:22.684Z,92.70
2017-12-06T02:19:50.138Z,92.60
2017-12-06T02:22:16.686Z,92.80
2017-12-06T02:24:43.260Z,92.30
2017-12-06T02:27:09.754Z,92.40
2017-12-06T02:29:36.183Z,92.30
2017-12-06T02:32:02.714Z,92.30
2017-12-06T02:34:29.477Z,92.40
2017-12-06T02:36:57.087Z,92.20
2017-12-06T02:39:35.589Z,92.30
2017-12-06T02:45:16.339Z,92.10
2017-12-06T02:47:43.787Z,92.20
2017-12-06T02:50:10.439Z,92.20
2017-12-06T02:52:37.101Z,92.20
2017-12-06T02:55:03.545Z,92.20
2017-12-06T02:57:30.044Z,92.20
2017-12-06T02:59:57.331Z,92.10
2017-12-06T03:02:24.070Z,92.20
2017-12-06T03:04:51.186Z,92.20
2017-12-06T03:07:18.643Z,92.30
2017-12-06T03:09:45.394Z,92.40
2017-12-06T03:12:12.097Z,92.60
2017-12-06T03:14:38.678Z,92.70
2017-12-06T03:17:05.100Z,92.80
2017-12-06T03:19:31.826Z,92.80
2017-12-06T03:21:58.307Z,92.80
2017-12-06T03:24:24.741Z,92.90
2017-12-06T03:26:51.157Z,92.80
2017-12-06T03:29:17.598Z,92.80
2017-12-06T03:31:44.063Z,92.70
2017-12-06T03:34:10.630Z,92.70
2017-12-06T03:36:37.209Z,92.50
2017-12-06T03:39:04.526Z,92.40
2017-12-06T03:41:31.324Z,92.30
2017-12-06T03:43:57.761Z,92.40
2017-12-06T03:46:24.200Z,92.40
2017-12-06T03:48:50.817Z,92.30
2017-12-06T03:51:17.325Z,92.30
2017-12-06T03:53:43.730Z,92.30
2017-12-06T03:56:10.159Z,92.20
2017-12-06T03:58:36.670Z,92.20
2017-12-06T04:01:03.177Z,92.20
2017-12-06T04:03:29.711Z,92.30
2017-12-06T04:05:57.549Z,92.20
2017-12-06T04:08:23.920Z,92.30
2017-12-06T04:10:50.316Z,92.30
2017-12-06T04:13:16.848Z,92.20
2017-12-06T04:15:43.284Z,92.20
2017-12-06T04:18:09.699Z,92.10
2017-12-06T04:20:37.184Z,92.20
2017-12-06T04:23:04.437Z,92.30
2017-12-06T04:25:30.849Z,92.30
2017-12-06T04:27:57.258Z,92.40
2017-12-06T04:30:24.422Z,92.30
2017-12-06T04:32:50.883Z,92.30
2017-12-06T04:35:21.957Z,92.30
2017-12-06T04:37:49.197Z,92.40
2017-12-06T04:40:15.592Z,92.30
2017-12-06T04:42:42.108Z,92.40
2017-12-06T04:45:15.557Z,92.50
2017-12-06T04:47:45.644Z,92.50
2017-12-06T04:50:12.120Z,92.60
2017-12-06T04:52:38.724Z,92.70
2017-12-06T04:55:06.148Z,92.80
2017-12-06T04:57:32.506Z,92.80
2017-12-06T04:59:58.834Z,93.00
2017-12-06T05:02:25.346Z,93.10
2017-12-06T05:04:51.809Z,93.10
2017-12-06T05:07:18.412Z,93.10
2017-12-06T05:09:44.875Z,93.20
2017-12-06T05:12:12.713Z,93.30
2017-12-06T05:14:39.071Z,93.40
2017-12-06T05:17:06.916Z,93.50
2017-12-06T05:19:33.418Z,93.50
2017-12-06T05:21:59.788Z,93.40
2017-12-06T05:24:26.141Z,93.50
2017-12-06T05:26:52.595Z,93.50
2017-12-06T05:29:18.999Z,93.40
2017-12-06T05:31:45.445Z,93.40
2017-12-06T05:34:11.796Z,93.20
2017-12-06T05:36:39.367Z,93.50
2017-12-06T05:39:05.849Z,93.50
2017-12-06T05:41:32.210Z,93.80
2017-12-06T05:43:58.747Z,93.90
2017-12-06T05:46:25.281Z,94.10
2017-12-06T05:48:51.611Z,94.10
2017-12-06T05:51:18.220Z,94.20
2017-12-06T05:53:45.189Z,93.90
2017-12-06T05:56:12.258Z,93.90
2017-12-06T05:58:39.762Z,94.00
2017-12-06T06:01:07.116Z,94.10
2017-12-06T06:03:34.099Z,94.10
2017-12-06T06:06:01.399Z,94.20
2017-12-06T06:08:28.703Z,94.40
2017-12-06T06:10:55.010Z,94.40
2017-12-06T06:13:21.363Z,94.50
2017-12-06T06:15:47.829Z,94.80
2017-12-06T06:18:14.306Z,94.80
2017-12-06T06:20:40.783Z,95.00
2017-12-06T06:23:07.296Z,95.00
2017-12-06T06:25:33.730Z,95.00
2017-12-06T06:28:00.927Z,94.70
2017-12-06T06:30:27.370Z,94.70
2017-12-06T06:32:53.726Z,94.80
2017-12-06T06:35:20.130Z,94.90
2017-12-06T06:40:47.315Z,94.70
2017-12-06T06:43:13.920Z,94.70
2017-12-06T06:45:40.283Z,94.60
2017-12-06T06:48:07.367Z,94.30
2017-12-06T06:50:33.874Z,94.30
2017-12-06T06:53:00.311Z,94.30
2017-12-06T06:55:27.098Z,94.30
2017-12-06T06:57:53.505Z,94.20
2017-12-06T07:00:20.881Z,94.30
2017-12-06T07:02:47.395Z,94.30
2017-12-06T07:05:13.849Z,94.30
2017-12-06T07:07:40.895Z,94.20
2017-12-06T07:10:08.851Z,94.30
2017-12-06T07:12:35.304Z,94.30
2017-12-06T07:15:01.732Z,94.40
2017-12-06T07:17:28.954Z,94.60
2017-12-06T07:19:55.349Z,94.60
2017-12-06T07:22:22.545Z,94.80
2017-12-06T07:24:48.963Z,94.70
2017-12-06T07:27:15.366Z,94.80
2017-12-06T07:29:41.846Z,95.00
2017-12-06T07:32:08.289Z,95.00
2017-12-06T07:34:35.314Z,95.00
2017-12-06T07:37:02.191Z,95.00
2017-12-06T07:39:28.659Z,95.00
2017-12-06T07:41:56.099Z,94.80
2017-12-06T07:44:23.372Z,94.70
2017-12-06T07:46:54.177Z,94.80
2017-12-06T07:49:20.612Z,94.80
2017-12-06T07:51:47.089Z,94.80
2017-12-06T07:54:14.711Z,94.80
2017-12-06T07:56:41.988Z,94.80
2017-12-06T07:59:09.515Z,94.80
2017-12-06T08:01:37.191Z,94.70
2017-12-06T08:04:03.727Z,94.60
2017-12-06T08:06:30.134Z,94.60
2017-12-06T08:08:56.916Z,94.60
2017-12-06T08:11:23.464Z,94.50
2017-12-06T08:13:50.740Z,94.70
2017-12-06T08:16:17.457Z,94.80
2017-12-06T08:18:44.985Z,94.90
2017-12-06T08:21:12.214Z,95.00
2017-12-06T08:23:38.760Z,95.00
2017-12-06T08:26:05.215Z,94.90
2017-12-06T08:28:31.616Z,94.90
2017-12-06T08:30:58.300Z,94.80
2017-12-06T08:33:25.823Z,94.60
2017-12-06T08:35:53.487Z,94.50
2017-12-06T08:38:20.823Z,94.40
2017-12-06T08:40:47.641Z,94.40
2017-12-06T08:43:14.898Z,94.20
2017-12-06T08:45:42.490Z,94.20
2017-12-06T08:48:09.029Z,94.30
2017-12-06T08:50:35.869Z,94.20
2017-12-06T08:53:04.512Z,93.80
2017-12-06T08:55:31.033Z,93.80
2017-12-06T08:57:58.680Z,93.80
2017-12-06T09:00:25.405Z,93.80
2017-12-06T09:02:51.850Z,93.80
2017-12-06T09:05:18.306Z,93.70
2017-12-06T09:07:44.836Z,93.40
2017-12-06T09:10:11.704Z,93.30
2017-12-06T09:12:38.562Z,93.30
2017-12-06T09:15:05.107Z,93.30
2017-12-06T09:17:31.723Z,93.20
2017-12-06T09:19:58.203Z,93.20
2017-12-06T09:22:24.768Z,93.20
2017-12-06T09:24:51.421Z,93.50
2017-12-06T09:27:18.188Z,93.20
2017-12-06T09:29:44.733Z,93.00
2017-12-06T09:32:11.322Z,92.90
2017-12-06T09:34:37.898Z,92.90
2017-12-06T09:37:05.936Z,92.70
2017-12-06T09:39:32.461Z,92.80
2017-12-06T09:41:59.076Z,92.70
2017-12-06T09:44:25.817Z,92.70
2017-12-06T09:46:52.518Z,92.70
2017-12-06T09:49:22.152Z,92.50
2017-12-06T09:51:48.816Z,92.50
2017-12-06T09:54:15.643Z,92.70
2017-12-06T09:56:42.366Z,92.70
2017-12-06T09:59:09.324Z,92.80
2017-12-06T10:01:35.883Z,93.10
2017-12-06T10:04:02.310Z,93.10
2017-12-06T10:06:30.154Z,93.10
2017-12-06T10:08:57.527Z,93.30
2017-12-06T10:11:24.324Z,93.50
2017-12-06T10:13:51.982Z,93.30
2017-12-06T10:16:19.326Z,93.20
2017-12-06T10:18:45.674Z,93.20
2017-12-06T10:21:13.143Z,93.40
2017-12-06T10:23:39.699Z,93.50
2017-12-06T10:26:06.303Z,93.60
2017-12-06T10:28:32.886Z,93.80
2017-12-06T10:30:59.280Z,93.60
2017-12-06T10:33:25.724Z,93.60
2017-12-06T10:35:52.290Z,93.70
2017-12-06T10:38:19.236Z,93.60
2017-12-06T10:40:46.439Z,93.70
2017-12-06T10:43:12.904Z,93.60
2017-12-06T10:45:39.534Z,93.70
2017-12-06T10:48:06.370Z,93.80
2017-12-06T10:50:33.011Z,93.70
2017-12-06T10:53:00.402Z,93.80
2017-12-06T10:55:26.878Z,93.80
2017-12-06T10:57:53.717Z,93.50
2017-12-06T11:00:20.965Z,93.50
2017-12-06T11:02:48.313Z,93.60
2017-12-06T11:05:14.799Z,93.60
2017-12-06T11:07:41.283Z,93.70
2017-12-06T11:10:07.940Z,93.60
2017-12-06T11:12:35.212Z,93.30
2017-12-06T11:15:02.718Z,93.30
2017-12-06T11:17:29.108Z,93.20
2017-12-06T11:19:56.514Z,93.40
2017-12-06T11:22:22.956Z,93.10
2017-12-06T11:24:49.477Z,93.20
2017-12-06T11:27:15.991Z,93.00
2017-12-06T11:29:42.663Z,92.80
2017-12-06T11:32:09.230Z,92.90
2017-12-06T11:34:36.926Z,92.80
2017-12-06T11:37:03.381Z,92.60
2017-12-06T11:39:29.730Z,92.40
2017-12-06T11:41:57.369Z,92.30
2017-12-06T11:44:23.801Z,92.20
2017-12-06T11:46:50.372Z,92.20
2017-12-06T11:49:18.614Z,92.30
2017-12-06T11:51:45.193Z,92.30
2017-12-06T11:54:13.230Z,92.10
2017-12-06T11:56:40.141Z,92.20
2017-12-06T11:59:07.827Z,92.40
2017-12-06T12:01:35.097Z,92.40
2017-12-06T12:04:01.551Z,92.30
2017-12-06T12:06:28.430Z,92.30
2017-12-06T12:08:55.239Z,92.20
2017-12-06T12:11:22.761Z,92.20
2017-12-06T12:13:50.512Z,92.30
2017-12-06T12:16:16.987Z,92.20
2017-12-06T12:18:43.524Z,92.30
2017-12-06T12:21:09.976Z,92.20
2017-12-06T12:23:37.834Z,92.30
2017-12-06T12:26:05.040Z,92.20
2017-12-06T12:28:32.201Z,92.30
2017-12-06T12:30:59.543Z,92.30
2017-12-06T12:33:26.129Z,92.20
2017-12-06T12:35:52.721Z,92.20
2017-12-06T12:38:19.249Z,92.10
2017-12-06T12:40:46.004Z,92.10
2017-12-06T12:43:13.453Z,92.00
2017-12-06T12:45:42.837Z,92.00
2017-12-06T12:48:09.421Z,92.00
2017-12-06T12:50:36.822Z,91.90
2017-12-06T12:53:03.414Z,91.80
2017-12-06T12:55:30.060Z,91.80
2017-12-06T12:57:57.561Z,91.80
2017-12-06T13:00:25.682Z,91.80
2017-12-06T13:02:52.217Z,91.80
2017-12-06T13:05:19.013Z,92.00
2017-12-06T13:07:47.877Z,91.90
2017-12-06T13:10:15.732Z,91.80
2017-12-06T13:12:44.898Z,91.90
2017-12-06T13:15:11.358Z,91.80
2017-12-06T13:17:38.064Z,91.80
2017-12-06T13:20:05.407Z,91.80
2017-12-06T13:22:32.918Z,91.80
2017-12-06T13:24:59.456Z,91.80
2017-12-06T13:27:25.953Z,91.80
2017-12-06T13:29:52.380Z,91.80
2017-12-06T13:32:20.584Z,91.70
2017-12-06T13:34:48.210Z,91.60
2017-12-06T13:37:15.722Z,91.70
2017-12-06T13:39:43.338Z,91.60
2017-12-06T13:42:10.005Z,91.40
2017-12-06T13:44:37.301Z,91.30
2017-12-06T13:47:04.747Z,91.30
2017-12-06T13:49:32.742Z,91.20
2017-12-06T13:51:59.871Z,91.20
2017-12-06T13:54:26.373Z,91.00
2017-12-06T13:56:53.112Z,91.10
2017-12-06T13:59:19.588Z,91.00
2017-12-06T14:01:46.395Z,91.00
2017-12-06T14:04:12.967Z,90.90
2017-12-06T14:06:40.835Z,91.10
2017-12-06T14:09:07.378Z,90.90
2017-12-06T14:11:33.867Z,90.90
2017-12-06T14:14:00.397Z,91.00
2017-12-06T14:16:27.060Z,90.70
2017-12-06T14:18:53.934Z,90.70
2017-12-06T14:21:21.469Z,90.80
2017-12-06T14:23:48.244Z,90.80
2017-12-06T14:26:15.030Z,91.10
2017-12-06T14:28:42.430Z,90.70
2017-12-06T14:31:08.948Z,90.60
2017-12-06T14:33:36.385Z,90.60
2017-12-06T14:36:03.809Z,90.60
2017-12-06T14:38:32.153Z,90.90
2017-12-06T14:40:58.963Z,90.60
2017-12-06T14:43:28.476Z,90.70
2017-12-06T14:45:55.200Z,90.70
2017-12-06T14:48:21.716Z,90.60
2017-12-06T14:50:48.245Z,90.70
2017-12-06T14:53:14.689Z,90.60
2017-12-06T14:55:41.283Z,90.50
2017-12-06T14:58:07.781Z,90.50
2017-12-06T15:00:34.333Z,90.70
2017-12-06T15:03:01.647Z,90.60
2017-12-06T15:05:29.187Z,90.80
2017-12-06T15:07:55.736Z,90.60
2017-12-06T15:10:22.236Z,90.60
2017-12-06T15:12:48.761Z,90.60
2017-12-06T15:15:15.585Z,90.60
2017-12-06T15:17:42.092Z,90.80
2017-12-06T15:20:08.955Z,90.60
2017-12-06T15:22:36.054Z,90.60
2017-12-06T15:25:03.459Z,90.60
2017-12-06T15:27:31.739Z,90.60
2017-12-06T15:30:00.635Z,90.50
2017-12-06T15:32:27.328Z,90.50
2017-12-06T15:34:54.874Z,90.40
2017-12-06T15:37:22.281Z,90.60
2017-12-06T15:39:50.707Z,90.40
2017-12-06T15:42:18.170Z,90.40
2017-12-06T15:44:45.532Z,90.40
2017-12-06T15:47:13.145Z,90.40
2017-12-06T15:49:39.612Z,90.40
2017-12-06T15:52:07.475Z,90.50
2017-12-06T15:54:33.994Z,90.50
2017-12-06T15:57:00.464Z,90.50
2017-12-06T15:59:27.274Z,90.50
2017-12-06T16:01:54.836Z,90.60
2017-12-06T16:04:21.248Z,90.60
2017-12-06T16:06:47.942Z,90.60
2017-12-06T16:09:14.935Z,90.70
2017-12-06T16:11:41.435Z,90.80
2017-12-06T16:14:08.725Z,90.70
2017-12-06T16:16:35.649Z,90.80
2017-12-06T16:19:02.633Z,90.90
2017-12-06T16:21:29.338Z,90.90
2017-12-06T16:23:56.576Z,90.80
2017-12-06T16:26:23.140Z,90.80
2017-12-06T16:28:50.145Z,90.70
2017-12-06T16:31:16.762Z,90.80
2017-12-06T16:33:43.301Z,90.70
2017-12-06T16:36:22.062Z,90.80
2017-12-06T16:38:48.888Z,90.80
2017-12-06T16:41:16.772Z,90.80
2017-12-06T16:43:43.677Z,90.80
2017-12-06T16:46:10.694Z,90.90
2017-12-06T16:48:37.653Z,90.80
2017-12-06T16:51:07.525Z,90.80
2017-12-06T16:53:35.168Z,90.90
2017-12-06T16:56:03.196Z,90.80
2017-12-06T16:58:29.831Z,90.90
2017-12-06T17:00:56.486Z,90.90
2017-12-06T17:03:23.272Z,91.00
2017-12-06T17:05:51.472Z,91.10
2017-12-06T17:08:18.178Z,91.20
2017-12-06T17:10:44.913Z,91.30
2017-12-06T17:13:11.575Z,91.50
2017-12-06T17:15:38.041Z,91.50
2017-12-06T17:18:13.378Z,91.60
2017-12-06T17:20:40.832Z,91.50
2017-12-06T17:23:08.365Z,91.50
2017-12-06T17:25:34.778Z,91.70
2017-12-06T17:28:01.281Z,91.90
2017-12-06T17:30:39.920Z,92.10
2017-12-06T17:33:06.442Z,92.20
2017-12-06T17:35:33.023Z,92.40
2017-12-06T17:37:59.491Z,92.50
2017-12-06T17:40:26.111Z,92.40
2017-12-06T17:42:53.279Z,92.40
2017-12-06T17:45:20.252Z,92.40
2017-12-06T17:47:46.713Z,92.50
2017-12-06T17:50:26.060Z,92.50
2017-12-06T17:52:56.106Z,92.50
2017-12-06T17:55:23.723Z,92.40
2017-12-06T17:57:51.358Z,92.40
2017-12-06T18:00:17.828Z,92.30
2017-12-06T18:02:44.280Z,92.00
2017-12-06T18:05:10.944Z,91.80
2017-12-06T18:07:37.412Z,91.40
2017-12-06T18:10:04.020Z,91.20
2017-12-06T18:12:31.017Z,91.10
2017-12-06T18:14:58.304Z,90.90
2017-12-06T18:17:25.187Z,90.90
2017-12-06T18:19:52.769Z,90.50
2017-12-06T18:22:20.035Z,90.30
2017-12-06T18:24:46.970Z,90.30
2017-12-06T18:27:13.685Z,90.20
2017-12-06T18:29:40.299Z,90.00
2017-12-06T18:32:08.601Z,89.90
2017-12-06T18:34:35.697Z,89.80
2017-12-06T18:37:02.166Z,89.40
2017-12-06T18:39:28.575Z,89.10
2017-12-06T18:41:55.202Z,89.10
2017-12-06T18:44:21.605Z,88.90
2017-12-06T18:46:48.109Z,88.60
2017-12-06T18:49:14.612Z,88.50
2017-12-06T18:51:41.180Z,88.60
2017-12-06T18:54:07.741Z,88.40
2017-12-06T18:56:34.412Z,88.30
2017-12-06T18:59:01.654Z,87.70
2017-12-06T19:01:28.151Z,87.70
2017-12-06T19:03:54.714Z,87.60
2017-12-06T19:06:21.138Z,87.10
2017-12-06T19:08:48.141Z,87.00
2017-12-06T19:11:15.471Z,87.00
2017-12-06T19:13:43.118Z,86.90
2017-12-06T19:16:09.615Z,86.80
2017-12-06T19:18:36.046Z,86.70
2017-12-06T19:21:02.621Z,86.70
2017-12-06T19:23:29.348Z,86.70
2017-12-06T19:25:57.625Z,86.60
2017-12-06T19:28:24.439Z,86.70
2017-12-06T19:30:50.905Z,86.60
2017-12-06T19:33:17.514Z,86.70
2017-12-06T19:35:43.989Z,86.70
2017-12-06T19:38:10.503Z,86.70
2017-12-06T19:40:36.999Z,86.30
2017-12-06T19:43:03.602Z,86.20
2017-12-06T19:45:30.883Z,85.70
2017-12-06T19:47:57.498Z,85.60
2017-12-06T19:50:24.019Z,85.70
2017-12-06T19:52:50.877Z,85.50
2017-12-06T19:55:17.333Z,85.50
2017-12-06T19:57:43.878Z,85.10
2017-12-06T20:00:13.718Z,85.10
2017-12-06T20:02:41.609Z,84.90
2017-12-06T20:05:08.109Z,84.70
2017-12-06T20:07:36.455Z,84.50
2017-12-06T20:10:03.050Z,84.40
2017-12-06T20:12:30.262Z,84.10
2017-12-06T20:14:56.752Z,84.00
2017-12-06T20:17:23.278Z,84.00
2017-12-06T20:19:49.783Z,83.80
2017-12-06T20:22:16.500Z,83.40
2017-12-06T20:24:44.180Z,83.00
2017-12-06T20:27:11.876Z,83.10
2017-12-06T20:29:38.240Z,83.00
2017-12-06T20:32:12.055Z,83.10
2017-12-06T20:34:38.412Z,82.90
2017-12-06T20:37:04.905Z,82.90
2017-12-06T20:39:31.316Z,82.70
2017-12-06T20:41:57.917Z,82.40
2017-12-06T20:44:24.487Z,82.20
2017-12-06T20:46:51.062Z,81.90
2017-12-06T20:49:17.595Z,81.80
2017-12-06T20:51:44.092Z,82.00
2017-12-06T20:54:10.881Z,82.10
2017-12-06T20:56:37.442Z,82.10
2017-12-06T20:59:04.011Z,82.10
2017-12-06T21:01:30.793Z,82.20
2017-12-06T21:03:58.549Z,82.60
2017-12-06T21:06:25.174Z,82.60
2017-12-06T21:08:52.067Z,82.50
2017-12-06T21:11:19.035Z,82.60
2017-12-06T21:13:45.671Z,82.70
2017-12-06T21:16:12.992Z,82.90
2017-12-06T21:18:39.601Z,82.90
2017-12-06T21:21:06.035Z,82.80
2017-12-06T21:23:33.699Z,82.90
2017-12-06T21:26:00.987Z,82.90
2017-12-06T21:28:27.522Z,83.00
2017-12-06T21:30:54.010Z,83.00
2017-12-06T21:33:20.425Z,83.80
2017-12-06T21:35:46.935Z,83.10
2017-12-06T21:38:13.467Z,83.10
2017-12-06T21:40:39.987Z,83.10
2017-12-06T21:43:06.459Z,83.30
2017-12-06T21:45:33.741Z,83.50
2017-12-06T21:48:00.232Z,83.40
2017-12-06T21:50:27.676Z,83.70
2017-12-06T21:52:54.133Z,84.30
2017-12-06T21:55:20.598Z,83.90
2017-12-06T21:57:47.167Z,84.10
2017-12-06T22:00:21.394Z,84.10
2017-12-06T22:02:48.737Z,84.20
2017-12-06T22:05:15.310Z,84.20
2017-12-06T22:07:41.762Z,84.20
2017-12-06T22:10:08.302Z,84.30
2017-12-06T22:12:34.925Z,84.30
2017-12-06T22:15:01.584Z,84.20
2017-12-06T22:17:28.109Z,84.10
2017-12-06T22:19:54.845Z,84.20
2017-12-06T22:22:21.489Z,84.00
2017-12-06T22:24:48.265Z,83.80
2017-12-06T22:27:14.822Z,83.90
2017-12-06T22:29:41.675Z,83.60
2017-12-06T22:32:08.182Z,83.50
2017-12-06T22:34:35.088Z,83.30
2017-12-06T22:37:03.543Z,83.20
2017-12-06T22:39:30.739Z,83.00
2017-12-06T22:41:58.294Z,83.00
2017-12-06T22:44:25.577Z,82.60
2017-12-06T22:46:52.414Z,82.60
2017-12-06T22:49:20.048Z,82.60
2017-12-06T22:51:46.697Z,82.00
2017-12-06T22:54:13.770Z,81.40
2017-12-06T22:56:40.555Z,81.20
2017-12-06T22:59:07.433Z,80.70
2017-12-06T23:01:34.076Z,80.70
2017-12-06T23:04:01.356Z,80.60
2017-12-06T23:06:28.810Z,80.80
2017-12-06T23:08:56.299Z,80.70
2017-12-06T23:11:23.131Z,80.70
2017-12-06T23:13:49.951Z,80.60
2017-12-06T23:16:16.622Z,80.50
2017-12-06T23:18:44.230Z,80.40
2017-12-06T23:21:11.230Z,80.40
2017-12-06T23:23:38.314Z,80.00
2017-12-06T23:26:05.968Z,79.90
2017-12-06T23:28:33.328Z,79.90
2017-12-06T23:31:00.223Z,79.60
2017-12-06T23:33:26.879Z,79.90
2017-12-06T23:35:53.834Z,79.80
2017-12-06T23:38:21.187Z,80.30
2017-12-06T23:40:47.878Z,80.00
2017-12-06T23:43:14.588Z,80.00
2017-12-06T23:45:41.970Z,80.20
2017-12-06T23:48:09.217Z,80.50
2017-12-06T23:50:35.890Z,80.50
2017-12-06T23:53:02.559Z,80.50
2017-12-06T23:55:29.126Z,80.60
2017-12-06T23:57:55.567Z,80.80
